Time;durP1;ratioP1;P1;durP2;ratioP2;P2;SDS_P1;SDS_P2;PMS_P1;PMS_P2;Temp;Humidity;BMP_temperature;BMP_pressure;BME280_temperature;BME280_humidity;BME280_pressure;Samples;Min_cycle;Max_cycle;Signal;HPM_P1;HPM_P2
2023/06/14 00:00:22;;;;;;;;;;;;;;;27.18;26.68;98072.03;5050488;28;20471;-89
2023/06/14 00:02:48;;;;;;;;;;;;;;;27.31;26.70;98061.47;5051284;28;19947;-88
2023/06/14 00:05:14;;;;;;;;;;;;;;;27.48;26.68;98067.75;5049591;28;20016;-88
2023/06/14 00:07:43;;;;;;;;;;;;;;;27.64;26.29;98062.72;5040908;28;19928;-88
2023/06/14 00:10:10;;;;;;;;;;;;;;;27.81;26.30;98066.94;5052599;28;20387;-87
2023/06/14 00:12:38;;;;;;;;;;;;;;;27.56;26.28;98057.81;5054728;28;20049;-88
2023/06/14 00:15:05;;;;;;;;;;;;;;;27.39;26.71;98062.84;5055450;28;20284;-88
2023/06/14 00:17:31;;;;;;;;;;;;;;;26.96;26.58;98062.69;5038867;28;20415;-89
2023/06/14 00:19:58;;;;;;;;;;;;;;;26.76;27.08;98062.19;5041690;28;19943;-89
2023/06/14 00:22:28;;;;;;;;;;;;;;;26.57;27.06;98058.34;5055897;28;19917;-88
2023/06/14 00:24:54;;;;;;;;;;;;;;;26.39;27.40;98056.09;5055521;28;20368;-88
2023/06/14 00:27:20;;;;;;;;;;;;;;;26.78;27.11;98051.25;5054482;28;20011;-88
2023/06/14 00:29:46;;;;;;;;;;;;;;;26.96;27.03;98040.97;5054847;28;19964;-88
2023/06/14 00:32:12;;;;;;;;;;;;;;;26.97;26.97;98050.19;5038733;28;20007;-88
2023/06/14 00:34:38;;;;;;;;;;;;;;;26.96;26.89;98051.44;5054583;28;19931;-88
2023/06/14 00:37:04;;;;;;;;;;;;;;;27.18;26.77;98052.28;5055538;28;19917;-88
2023/06/14 00:39:30;;;;;;;;;;;;;;;26.92;26.94;98047.94;5053396;28;20299;-88
2023/06/14 00:41:57;;;;;;;;;;;;;;;26.66;27.18;98050.78;5048180;28;19932;-88
2023/06/14 00:44:23;;;;;;;;;;;;;;;26.86;27.04;98052.59;5051291;28;20442;-88
2023/06/14 00:46:50;;;;;;;;;;;;;;;27.10;27.05;98045.31;5050500;28;19927;-88
2023/06/14 00:49:17;;;;;;;;;;;;;;;27.25;26.69;98043.59;5052058;28;19928;-88
2023/06/14 00:51:43;;;;;;;;;;;;;;;27.23;26.94;98040.44;5045760;28;19920;-88
2023/06/14 00:54:10;;;;;;;;;;;;;;;27.45;26.61;98046.91;5053673;28;19924;-88
2023/06/14 00:56:36;;;;;;;;;;;;;;;27.67;26.27;98047.72;5053923;28;20408;-89
2023/06/14 00:59:03;;;;;;;;;;;;;;;27.89;26.03;98044.88;5051755;28;19925;-89
2023/06/14 01:01:32;;;;;;;;;;;;;;;28.05;26.13;98039.06;5052527;28;19921;-89
2023/06/14 01:03:58;;;;;;;;;;;;;;;28.17;26.03;98035.31;5047800;28;20018;-90
2023/06/14 01:06:42;;;;;;;;;;;;;;;28.10;26.33;98038.44;5052549;28;19924;-88
2023/06/14 01:09:17;;;;;;;;;;;;;;;27.65;26.85;98040.97;5049260;28;19924;-88
2023/06/14 01:12:07;;;;;;;;;;;;;;;27.80;27.08;98039.97;5046791;28;19924;-88
2023/06/14 01:14:34;;;;;;;;;;;;;;;27.61;27.20;98029.78;5048282;28;19978;-88
2023/06/14 01:17:01;;;;;;;;;;;;;;;27.60;26.92;98031.06;5054756;28;20330;-88
2023/06/14 01:19:28;;;;;;;;;;;;;;;27.94;26.30;98027.34;5054750;28;20290;-87
2023/06/14 01:21:55;;;;;;;;;;;;;;;27.42;26.72;98024.50;5048309;28;19952;-87
2023/06/14 01:24:25;;;;;;;;;;;;;;;27.02;27.11;98024.28;5050987;28;19927;-88
2023/06/14 01:26:55;;;;;;;;;;;;;;;26.99;26.99;98019.53;5054233;28;19917;-88
2023/06/14 01:29:22;;;;;;;;;;;;;;;26.70;27.55;98030.94;5054734;28;20016;-87
2023/06/14 01:31:49;;;;;;;;;;;;;;;26.84;27.23;98027.69;5052776;28;19925;-87
2023/06/14 01:34:15;;;;;;;;;;;;;;;26.83;27.30;98028.94;5042027;28;19964;-88
2023/06/14 01:36:43;;;;;;;;;;;;;;;27.09;27.08;98021.19;5034868;28;19972;-87
2023/06/14 01:39:15;;;;;;;;;;;;;;;26.91;27.32;98023.84;5054324;28;19953;-88
2023/06/14 01:41:42;;;;;;;;;;;;;;;26.76;27.43;98022.75;5052640;28;20003;-88
2023/06/14 01:44:09;;;;;;;;;;;;;;;27.08;26.85;98025.25;5054254;28;19917;-88
2023/06/14 01:46:35;;;;;;;;;;;;;;;27.01;27.08;98025.50;5053155;28;20007;-89
2023/06/14 01:49:02;;;;;;;;;;;;;;;27.14;27.25;98026.25;5054277;28;19921;-89
2023/06/14 01:51:28;;;;;;;;;;;;;;;27.46;26.89;98022.31;5052529;28;19917;-88
2023/06/14 01:54:01;;;;;;;;;;;;;;;27.74;26.65;98015.63;5052229;28;19921;-89
2023/06/14 01:56:27;;;;;;;;;;;;;;;27.92;26.44;98015.72;5052151;28;19921;-89
2023/06/14 01:58:54;;;;;;;;;;;;;;;28.08;26.30;98016.31;5044751;28;19917;-89
2023/06/14 02:01:21;;;;;;;;;;;;;;;28.28;25.92;98012.34;5041208;28;19932;-89
2023/06/14 02:03:48;;;;;;;;;;;;;;;28.22;26.05;98026.25;5050937;28;19925;-89
2023/06/14 02:06:15;;;;;;;;;;;;;;;28.23;26.09;98022.19;5051833;28;20011;-89
2023/06/14 02:08:42;;;;;;;;;;;;;;;27.95;26.45;98018.44;5040890;28;19983;-89
2023/06/14 02:11:08;;;;;;;;;;;;;;;27.56;26.67;98018.31;5045817;28;19921;-89
2023/06/14 02:13:34;;;;;;;;;;;;;;;26.96;27.58;98018.41;5038513;28;19928;-88
2023/06/14 02:16:00;;;;;;;;;;;;;;;26.66;27.83;98019.81;5048167;28;19991;-89
2023/06/14 02:18:27;;;;;;;;;;;;;;;26.56;28.31;98011.69;5046208;28;19959;-88
2023/06/14 02:20:53;;;;;;;;;;;;;;;26.30;28.51;98007.34;5049016;28;20032;-89
2023/06/14 02:23:19;;;;;;;;;;;;;;;26.33;28.58;98001.59;5049287;28;20338;-88
2023/06/14 02:25:45;;;;;;;;;;;;;;;26.19;29.21;98010.50;5051939;28;19921;-88
2023/06/14 02:28:12;;;;;;;;;;;;;;;26.51;28.63;97996.16;5053337;28;19925;-88
2023/06/14 02:30:38;;;;;;;;;;;;;;;27.12;27.78;97998.50;5053374;28;19999;-88
2023/06/14 02:33:04;;;;;;;;;;;;;;;27.47;27.02;98010.56;5047002;28;19952;-89
2023/06/14 02:35:30;;;;;;;;;;;;;;;27.46;27.42;98019.50;5049519;28;19972;-89
2023/06/14 02:37:56;;;;;;;;;;;;;;;27.69;26.94;98021.84;5032754;28;20396;-89
2023/06/14 02:40:23;;;;;;;;;;;;;;;27.91;26.86;98017.00;5038603;28;20011;-89
2023/06/14 02:42:49;;;;;;;;;;;;;;;28.31;26.47;98006.53;5044805;28;19928;-90
2023/06/14 02:45:15;;;;;;;;;;;;;;;28.42;26.00;98003.28;5043391;28;19924;-89
2023/06/14 02:47:41;;;;;;;;;;;;;;;28.40;26.16;98002.97;5053032;28;20039;-88
2023/06/14 02:50:08;;;;;;;;;;;;;;;27.87;26.66;98014.28;5046509;28;19921;-89
2023/06/14 02:52:34;;;;;;;;;;;;;;;27.89;26.79;98003.31;5049054;28;19928;-88
2023/06/14 02:55:00;;;;;;;;;;;;;;;27.94;26.79;98010.41;5045793;28;19992;-89
2023/06/14 02:57:26;;;;;;;;;;;;;;;28.02;26.59;98000.44;5052010;28;19921;-89
2023/06/14 02:59:52;;;;;;;;;;;;;;;28.12;26.59;98009.75;5053108;28;19924;-89
2023/06/14 03:02:18;;;;;;;;;;;;;;;28.00;26.96;98011.44;5050514;28;19933;-89
2023/06/14 03:04:46;;;;;;;;;;;;;;;28.05;26.72;98014.41;5051952;28;20304;-89
2023/06/14 03:07:13;;;;;;;;;;;;;;;28.13;26.85;98014.94;5039376;28;20288;-89
2023/06/14 03:09:39;;;;;;;;;;;;;;;28.18;26.67;98013.53;5043424;28;19921;-90
2023/06/14 03:12:09;;;;;;;;;;;;;;;28.31;26.63;98017.06;5052527;28;19928;-90
2023/06/14 03:14:35;;;;;;;;;;;;;;;28.28;26.58;98013.13;5040570;28;20015;-90
2023/06/14 03:17:04;;;;;;;;;;;;;;;28.33;26.27;98018.16;5055802;28;20018;-90
2023/06/14 03:19:30;;;;;;;;;;;;;;;28.30;26.42;98016.28;5056725;28;20027;-90
2023/06/14 03:21:57;;;;;;;;;;;;;;;28.10;26.78;98015.09;5056596;28;20368;-90
2023/06/14 03:24:29;;;;;;;;;;;;;;;27.96;26.73;98025.63;5040889;28;19924;-89
2023/06/14 03:26:56;;;;;;;;;;;;;;;27.97;27.06;98024.41;5043929;28;20269;-89
2023/06/14 03:29:22;;;;;;;;;;;;;;;28.14;26.60;98024.97;5057039;28;19932;-89
2023/06/14 03:32:14;;;;;;;;;;;;;;;28.13;26.79;98022.59;5056802;28;19921;-88
2023/06/14 03:34:41;;;;;;;;;;;;;;;28.20;26.60;98019.50;5034217;28;20384;-89
2023/06/14 03:37:07;;;;;;;;;;;;;;;28.22;26.51;98019.81;5040380;28;20401;-89
2023/06/14 03:39:33;;;;;;;;;;;;;;;28.10;26.78;98013.03;5050433;28;19921;-92
2023/06/14 03:41:59;;;;;;;;;;;;;;;28.03;26.55;98011.28;5036401;28;19917;-91
2023/06/14 03:44:26;;;;;;;;;;;;;;;27.90;26.98;98016.19;5045804;28;20006;-89
2023/06/14 03:46:52;;;;;;;;;;;;;;;28.01;27.19;98015.81;5042296;28;19925;-89
2023/06/14 03:49:18;;;;;;;;;;;;;;;28.32;26.42;98018.63;5053609;28;19968;-91
2023/06/14 03:51:45;;;;;;;;;;;;;;;28.36;26.58;98024.91;5055266;28;19978;-90
2023/06/14 03:54:11;;;;;;;;;;;;;;;28.49;26.44;98015.09;5049353;28;20323;-89
2023/06/14 03:56:37;;;;;;;;;;;;;;;28.58;26.25;98028.44;5054608;28;20291;-90
2023/06/14 03:59:03;;;;;;;;;;;;;;;28.72;26.16;98027.91;5040181;28;19968;-89
2023/06/14 04:01:29;;;;;;;;;;;;;;;28.87;25.96;98026.03;5049222;28;20502;-89
2023/06/14 04:03:58;;;;;;;;;;;;;;;28.98;25.96;98028.41;5052045;28;19924;-89
2023/06/14 04:06:32;;;;;;;;;;;;;;;29.11;25.59;98027.03;5056588;28;19924;-89
2023/06/14 04:09:01;;;;;;;;;;;;;;;29.17;25.77;98032.84;5055981;28;19928;-89
2023/06/14 04:11:27;;;;;;;;;;;;;;;29.22;25.52;98026.59;5045392;28;19921;-90
2023/06/14 04:13:56;;;;;;;;;;;;;;;29.28;25.69;98036.03;5051124;28;20395;-89
2023/06/14 04:16:22;;;;;;;;;;;;;;;29.28;25.33;98031.16;5051158;28;19924;-91
2023/06/14 04:18:51;;;;;;;;;;;;;;;29.26;25.75;98039.34;5054557;28;20407;-92
2023/06/14 04:21:17;;;;;;;;;;;;;;;29.24;25.44;98041.81;5051896;28;19975;-92
2023/06/14 04:23:43;;;;;;;;;;;;;;;29.27;25.47;98037.25;5050176;28;19921;-90
2023/06/14 04:26:10;;;;;;;;;;;;;;;29.17;25.33;98036.44;5053968;28;19920;-90
2023/06/14 04:28:40;;;;;;;;;;;;;;;28.85;25.95;98048.31;5051757;28;19921;-90
2023/06/14 04:31:08;;;;;;;;;;;;;;;28.76;26.28;98042.66;5052205;28;19975;-93
2023/06/14 04:33:42;;;;;;;;;;;;;;;28.90;25.92;98038.44;5047044;28;19925;-92
2023/06/14 04:36:12;;;;;;;;;;;;;;;28.93;25.88;98043.16;5045218;28;19947;-89
2023/06/14 04:38:38;;;;;;;;;;;;;;;28.76;26.00;98039.81;5042905;28;19925;-88
2023/06/14 04:41:05;;;;;;;;;;;;;;;28.36;26.66;98039.03;5045568;28;19921;-89
2023/06/14 04:43:31;;;;;;;;;;;;;;;28.44;26.82;98043.16;5049098;28;20365;-93
2023/06/14 04:45:57;;;;;;;;;;;;;;;28.51;26.57;98038.00;5048131;28;20277;-93
2023/06/14 04:48:24;;;;;;;;;;;;;;;28.78;26.35;98037.31;5048414;28;19928;-91
2023/06/14 04:50:53;;;;;;;;;;;;;;;28.84;26.45;98034.69;5053678;28;19928;-93
2023/06/14 04:53:22;;;;;;;;;;;;;;;28.74;26.74;98039.50;5039616;28;19921;-91
2023/06/14 04:55:50;;;;;;;;;;;;;;;28.74;26.58;98031.03;5052449;28;20000;-86
2023/06/14 04:58:16;;;;;;;;;;;;;;;28.85;26.78;98037.03;5039462;28;20014;-89
2023/06/14 05:00:43;;;;;;;;;;;;;;;29.11;26.21;98041.16;5046206;28;20303;-86
2023/06/14 05:03:09;;;;;;;;;;;;;;;29.28;26.01;98036.03;5051183;28;19925;-92
2023/06/14 05:05:35;;;;;;;;;;;;;;;29.47;26.08;98033.97;5044704;28;19918;-92
2023/06/14 05:08:01;;;;;;;;;;;;;;;29.52;26.09;98036.19;5036067;28;19924;-91
2023/06/14 05:10:27;;;;;;;;;;;;;;;29.53;26.08;98044.19;5054649;28;19921;-91
2023/06/14 05:12:54;;;;;;;;;;;;;;;29.51;26.17;98043.09;5054836;28;20015;-92
2023/06/14 05:15:26;;;;;;;;;;;;;;;29.46;26.44;98041.66;5053515;28;20356;-90
2023/06/14 05:17:55;;;;;;;;;;;;;;;29.51;26.58;98034.59;5054369;28;20404;-91
2023/06/14 05:20:24;;;;;;;;;;;;;;;29.63;27.10;98045.75;5054576;28;19963;-91
2023/06/14 05:22:52;;;;;;;;;;;;;;;29.73;26.93;98044.50;5042587;28;19917;-91
2023/06/14 05:25:18;;;;;;;;;;;;;;;29.85;26.35;98039.97;5034847;28;20288;-91
2023/06/14 05:27:44;;;;;;;;;;;;;;;29.89;26.45;98043.41;5034748;28;20031;-91
2023/06/14 05:30:11;;;;;;;;;;;;;;;29.87;26.83;98048.75;5046117;28;19920;-90
2023/06/14 05:32:37;;;;;;;;;;;;;;;29.81;26.95;98047.81;5054214;28;20292;-90
2023/06/14 05:35:04;;;;;;;;;;;;;;;29.80;26.92;98043.41;5052954;28;19917;-91
2023/06/14 05:37:30;;;;;;;;;;;;;;;29.98;26.41;98049.03;5054582;28;20026;-91
2023/06/14 05:39:56;;;;;;;;;;;;;;;30.05;26.59;98048.72;5041144;28;19924;-91
2023/06/14 05:42:22;;;;;;;;;;;;;;;30.07;26.53;98046.19;5034533;28;19925;-91
2023/06/14 05:44:48;;;;;;;;;;;;;;;30.13;26.57;98046.34;5034397;28;19951;-90
2023/06/14 05:47:15;;;;;;;;;;;;;;;30.02;26.60;98041.94;5051499;28;19921;-91
2023/06/14 05:49:41;;;;;;;;;;;;;;;30.11;26.88;98046.78;5054224;28;19924;-91
2023/06/14 05:52:07;;;;;;;;;;;;;;;30.19;26.84;98044.41;5037590;28;20021;-91
2023/06/14 05:54:33;;;;;;;;;;;;;;;30.18;26.76;98049.28;5040404;28;19929;-91
2023/06/14 05:57:01;;;;;;;;;;;;;;;30.05;26.58;98049.50;5047110;28;19921;-91
2023/06/14 05:59:27;;;;;;;;;;;;;;;30.06;26.78;98042.56;5053838;28;19917;-90
2023/06/14 06:01:53;;;;;;;;;;;;;;;30.15;26.81;98044.59;5047502;28;20019;-91
2023/06/14 06:04:20;;;;;;;;;;;;;;;30.09;26.49;98050.13;5054058;28;20419;-90
2023/06/14 06:06:47;;;;;;;;;;;;;;;29.96;26.89;98045.91;5053899;28;19970;-91
2023/06/14 06:09:14;;;;;;;;;;;;;;;30.04;26.59;98052.78;5052797;28;19924;-90
2023/06/14 06:11:40;;;;;;;;;;;;;;;30.06;27.30;98058.75;5053783;28;19924;-91
2023/06/14 06:14:06;;;;;;;;;;;;;;;30.20;26.80;98060.16;5040018;28;19963;-90
2023/06/14 06:16:33;;;;;;;;;;;;;;;30.29;26.54;98063.75;5033849;28;19921;-91
2023/06/14 06:18:59;;;;;;;;;;;;;;;30.24;26.46;98064.41;5034155;28;19920;-91
2023/06/14 06:21:25;;;;;;;;;;;;;;;30.24;26.84;98064.41;5033918;28;19964;-91
2023/06/14 06:23:51;;;;;;;;;;;;;;;30.42;26.61;98063.56;5051963;28;19916;-91
2023/06/14 06:26:17;;;;;;;;;;;;;;;30.53;26.43;98061.00;5053579;28;19921;-93
2023/06/14 06:28:43;;;;;;;;;;;;;;;30.58;26.74;98068.84;5053537;28;19917;-92
2023/06/14 06:31:11;;;;;;;;;;;;;;;30.66;26.16;98068.03;5039744;28;19920;-91
2023/06/14 06:33:37;;;;;;;;;;;;;;;30.71;26.13;98066.59;5033498;28;19991;-91
2023/06/14 06:36:03;;;;;;;;;;;;;;;30.70;26.34;98082.03;5046696;28;20327;-91
2023/06/14 06:38:29;;;;;;;;;;;;;;;30.69;26.25;98081.25;5053284;28;20369;-92
2023/06/14 06:40:56;;;;;;;;;;;;;;;30.71;26.47;98090.03;5053762;28;19917;-91
2023/06/14 06:43:22;;;;;;;;;;;;;;;30.62;26.63;98095.75;5053311;28;19944;-91
2023/06/14 06:45:48;;;;;;;;;;;;;;;30.58;26.54;98095.16;5051837;28;20400;-91
2023/06/14 06:48:15;;;;;;;;;;;;;;;30.54;26.54;98102.25;5038705;28;19917;-91
2023/06/14 06:50:41;;;;;;;;;;;;;;;30.51;26.62;98106.03;5035541;28;20024;-92
2023/06/14 06:53:07;;;;;;;;;;;;;;;30.70;26.22;98101.88;5037950;28;19922;-91
2023/06/14 06:55:33;;;;;;;;;;;;;;;30.73;26.40;98103.75;5046749;28;19921;-91
2023/06/14 06:58:00;;;;;;;;;;;;;;;30.82;26.05;98105.75;5057387;28;19917;-91
2023/06/14 07:00:26;;;;;;;;;;;;;;;30.84;26.49;98106.06;5051704;28;19917;-91
2023/06/14 07:02:54;;;;;;;;;;;;;;;30.82;26.26;98100.88;5037395;28;19925;-93
2023/06/14 07:05:20;;;;;;;;;;;;;;;30.91;26.31;98100.88;5052648;28;19928;-91
2023/06/14 07:07:47;;;;;;;;;;;;;;;30.92;26.42;98095.97;5057397;28;19916;-91
2023/06/14 07:10:13;;;;;;;;;;;;;;;31.11;26.01;98100.28;5057529;28;19916;-90
2023/06/14 07:12:39;;;;;;;;;;;;;;;31.06;26.42;98100.94;5057446;28;20014;-91
2023/06/14 07:15:07;;;;;;;;;;;;;;;30.99;26.73;98104.13;5057132;28;20288;-91
2023/06/14 07:17:33;;;;;;;;;;;;;;;31.13;26.56;98106.25;5057418;28;19916;-90
2023/06/14 07:20:00;;;;;;;;;;;;;;;31.11;26.24;98109.56;5056080;28;20311;-90
2023/06/14 07:22:26;;;;;;;;;;;;;;;31.10;26.33;98110.84;5056070;28;19924;-91
2023/06/14 07:24:52;;;;;;;;;;;;;;;31.03;26.05;98118.91;5056577;28;19917;-91
2023/06/14 07:27:18;;;;;;;;;;;;;;;30.92;26.23;98121.50;5056967;28;19939;-91
2023/06/14 07:29:44;;;;;;;;;;;;;;;30.70;26.98;98114.00;5057096;28;20292;-91
2023/06/14 07:32:10;;;;;;;;;;;;;;;30.69;26.83;98128.66;5056891;28;19919;-91
2023/06/14 07:34:36;;;;;;;;;;;;;;;30.42;27.15;98131.56;5056723;28;19929;-90
2023/06/14 07:37:02;;;;;;;;;;;;;;;30.41;27.26;98130.78;5056349;28;19929;-91
2023/06/14 07:39:28;;;;;;;;;;;;;;;30.46;27.31;98132.19;5039431;28;19924;-91
2023/06/14 07:41:54;;;;;;;;;;;;;;;30.40;27.34;98132.06;5035892;28;19921;-92
2023/06/14 07:44:20;;;;;;;;;;;;;;;30.36;27.43;98125.78;5037126;28;20353;-92
2023/06/14 07:46:50;;;;;;;;;;;;;;;30.61;27.77;98127.44;5054345;28;19917;-92
2023/06/14 07:49:16;;;;;;;;;;;;;;;30.38;28.07;98131.75;5041409;28;19921;-90
2023/06/14 07:51:44;;;;;;;;;;;;;;;30.58;28.03;98131.19;5037098;28;19928;-91
2023/06/14 07:54:10;;;;;;;;;;;;;;;30.34;27.86;98136.00;5036443;28;19917;-91
2023/06/14 07:56:36;;;;;;;;;;;;;;;30.49;28.24;98134.06;5053066;28;19923;-91
2023/06/14 07:59:02;;;;;;;;;;;;;;;30.69;27.71;98140.00;5056901;28;19925;-92
2023/06/14 08:01:28;;;;;;;;;;;;;;;30.66;28.30;98141.75;5040897;28;19928;-91
2023/06/14 08:03:54;;;;;;;;;;;;;;;30.86;27.93;98135.50;5036744;28;19921;-92
2023/06/14 08:06:20;;;;;;;;;;;;;;;30.99;27.43;98138.97;5049734;28;20011;-94
2023/06/14 08:08:46;;;;;;;;;;;;;;;30.86;28.17;98135.50;5056483;28;20003;-92
2023/06/14 08:11:12;;;;;;;;;;;;;;;30.88;27.75;98130.16;5056539;28;20005;-92
2023/06/14 08:13:38;;;;;;;;;;;;;;;31.03;27.67;98127.44;5038742;28;20326;-91
2023/06/14 08:16:05;;;;;;;;;;;;;;;30.88;27.76;98129.38;5037912;28;19963;-91
2023/06/14 08:18:31;;;;;;;;;;;;;;;30.76;28.54;98133.97;5056154;28;20379;-94
2023/06/14 08:20:57;;;;;;;;;;;;;;;30.74;28.50;98128.00;5056444;28;19917;-92
2023/06/14 08:23:23;;;;;;;;;;;;;;;30.89;27.71;98128.13;5056528;28;19917;-93
2023/06/14 08:25:49;;;;;;;;;;;;;;;31.06;27.97;98132.94;5056429;28;19917;-93
2023/06/14 08:28:15;;;;;;;;;;;;;;;31.22;27.64;98134.56;5038243;28;20296;-93
2023/06/14 08:30:42;;;;;;;;;;;;;;;31.43;27.06;98136.38;5054892;28;19924;-93
2023/06/14 08:33:08;;;;;;;;;;;;;;;31.48;27.71;98129.25;5055554;28;19932;-92
2023/06/14 08:35:37;;;;;;;;;;;;;;;31.50;27.50;98129.53;5055595;28;20003;-92
2023/06/14 08:38:03;;;;;;;;;;;;;;;31.50;26.99;98138.84;5055068;28;20011;-92
2023/06/14 08:40:30;;;;;;;;;;;;;;;31.39;27.06;98136.50;5055444;28;19923;-93
2023/06/14 08:42:56;;;;;;;;;;;;;;;30.91;27.44;98146.22;5055666;28;19951;-91
2023/06/14 08:45:23;;;;;;;;;;;;;;;31.06;27.66;98135.78;5054977;28;19921;-91
2023/06/14 08:47:57;;;;;;;;;;;;;;;30.69;27.74;98152.09;5050393;28;19921;-90
2023/06/14 08:50:29;;;;;;;;;;;;;;;30.44;28.54;98146.84;5055179;28;20307;-92
2023/06/14 08:52:57;;;;;;;;;;;;;;;30.01;28.81;98147.97;5055773;28;19917;-92
2023/06/14 08:55:26;;;;;;;;;;;;;;;30.31;28.64;98151.88;5054909;28;19971;-92
2023/06/14 08:57:54;;;;;;;;;;;;;;;30.54;28.07;98159.72;5055526;28;19925;-90
2023/06/14 09:00:21;;;;;;;;;;;;;;;30.64;28.75;98154.81;5055660;28;19952;-91
2023/06/14 09:02:47;;;;;;;;;;;;;;;30.99;28.16;98152.34;5052457;28;20398;-92
2023/06/14 09:05:13;;;;;;;;;;;;;;;30.74;28.34;98162.00;5043083;28;19969;-92
2023/06/14 09:07:40;;;;;;;;;;;;;;;30.87;28.44;98153.31;5054768;28;19924;-92
2023/06/14 09:10:12;;;;;;;;;;;;;;;31.05;28.83;98156.88;5055600;28;19917;-91
2023/06/14 09:12:42;;;;;;;;;;;;;;;31.29;27.91;98156.91;5055492;28;19932;-92
2023/06/14 09:15:08;;;;;;;;;;;;;;;31.03;27.57;98159.41;5053671;28;19928;-91
2023/06/14 09:17:35;;;;;;;;;;;;;;;31.07;27.72;98162.06;5054841;28;20008;-92
2023/06/14 09:20:21;;;;;;;;;;;;;;;30.94;27.76;98170.00;5049712;28;19919;-92
2023/06/14 09:22:47;;;;;;;;;;;;;;;30.91;27.39;98159.63;5052677;28;20392;-93
2023/06/14 09:25:15;;;;;;;;;;;;;;;30.84;27.88;98159.94;5052704;28;19924;-91
2023/06/14 09:27:42;;;;;;;;;;;;;;;31.08;27.73;98161.59;5052695;28;20372;-91
2023/06/14 09:30:10;;;;;;;;;;;;;;;31.48;27.10;98151.94;5052634;28;19919;-91
2023/06/14 09:32:38;;;;;;;;;;;;;;;31.34;27.59;98157.03;5046681;28;19921;-91
2023/06/14 09:35:04;;;;;;;;;;;;;;;31.40;27.60;98165.69;5042917;28;19976;-92
2023/06/14 09:37:31;;;;;;;;;;;;;;;31.53;27.93;98165.47;5054232;28;19923;-91
2023/06/14 09:39:58;;;;;;;;;;;;;;;31.59;27.01;98161.47;5032720;28;20399;-91
2023/06/14 09:42:28;;;;;;;;;;;;;;;31.51;27.24;98157.44;5032771;28;20391;-91
2023/06/14 09:44:54;;;;;;;;;;;;;;;31.70;26.89;98163.75;5033598;28;20004;-91
2023/06/14 09:47:21;;;;;;;;;;;;;;;31.53;27.35;98157.72;5032473;28;19952;-91
2023/06/14 09:49:47;;;;;;;;;;;;;;;31.52;27.26;98150.50;5032233;28;20000;-90
2023/06/14 09:52:15;;;;;;;;;;;;;;;31.73;27.42;98160.75;5032563;28;20299;-90
2023/06/14 09:54:43;;;;;;;;;;;;;;;31.80;26.47;98154.69;5037355;28;20439;-90
2023/06/14 09:57:11;;;;;;;;;;;;;;;31.94;26.02;98150.31;5038872;28;20328;-91
2023/06/14 09:59:40;;;;;;;;;;;;;;;31.73;26.88;98140.09;5034490;28;19963;-93
2023/06/14 10:02:09;;;;;;;;;;;;;;;31.44;27.17;98154.19;5043352;28;19916;-92
2023/06/14 10:04:36;;;;;;;;;;;;;;;31.40;26.67;98145.81;5052668;28;19921;-92
2023/06/14 10:07:03;;;;;;;;;;;;;;;31.54;27.34;98153.63;5054117;28;19916;-90
2023/06/14 10:09:30;;;;;;;;;;;;;;;31.65;26.90;98155.94;5054084;28;19917;-91
2023/06/14 10:11:56;;;;;;;;;;;;;;;31.68;26.56;98152.91;5041816;28;19913;-90
2023/06/14 10:14:22;;;;;;;;;;;;;;;31.73;26.74;98157.91;5034027;28;20032;-91
2023/06/14 10:16:56;;;;;;;;;;;;;;;31.86;26.59;98158.44;5052445;28;19948;-91
2023/06/14 10:19:25;;;;;;;;;;;;;;;31.98;26.62;98157.41;5053746;28;20008;-92
2023/06/14 10:22:10;;;;;;;;;;;;;;;31.91;26.31;98159.81;5054317;28;20328;-92
2023/06/14 10:24:43;;;;;;;;;;;;;;;31.85;26.74;98156.88;5053552;28;19917;-91
2023/06/14 10:27:12;;;;;;;;;;;;;;;32.03;26.11;98148.22;5033926;28;19945;-91
2023/06/14 10:29:53;;;;;;;;;;;;;;;31.77;27.16;98152.81;5051324;28;19921;-91
2023/06/14 10:32:27;;;;;;;;;;;;;;;31.97;26.97;98155.84;5049519;28;19917;-90
2023/06/14 10:35:01;;;;;;;;;;;;;;;31.76;28.04;98161.84;5033689;28;19933;-92
2023/06/14 10:37:29;;;;;;;;;;;;;;;31.72;28.08;98159.16;5033026;28;21836;-91
2023/06/14 10:39:55;;;;;;;;;;;;;;;32.20;27.25;98157.06;5050703;28;19927;-91
2023/06/14 10:42:22;;;;;;;;;;;;;;;32.13;27.00;98160.28;5053287;28;20368;-91
2023/06/14 10:44:52;;;;;;;;;;;;;;;31.54;28.10;98153.63;5041417;28;19967;-92
2023/06/14 10:47:22;;;;;;;;;;;;;;;31.92;28.82;98159.34;5033646;28;19979;-90
2023/06/14 10:49:56;;;;;;;;;;;;;;;32.32;27.35;98150.31;5034091;28;19937;-92
2023/06/14 10:52:24;;;;;;;;;;;;;;;31.97;27.60;98147.31;5033690;28;19921;-92
2023/06/14 10:55:03;;;;;;;;;;;;;;;30.00;29.99;98149.25;5033532;28;20327;-93
2023/06/14 10:57:33;;;;;;;;;;;;;;;29.02;32.04;98150.63;5033845;28;19921;-93
2023/06/14 11:00:00;;;;;;;;;;;;;;;28.33;33.12;98150.91;5049687;28;19917;-92
2023/06/14 11:02:46;;;;;;;;;;;;;;;26.95;34.91;98154.94;5044842;28;19928;-92
2023/06/14 11:05:15;;;;;;;;;;;;;;;26.73;35.77;98146.34;5049994;28;19920;-92
2023/06/14 11:08:01;;;;;;;;;;;;;;;28.04;33.46;98144.72;5033786;28;19925;-93
2023/06/14 11:10:40;;;;;;;;;;;;;;;27.80;33.17;98143.56;5033514;28;19948;-91
2023/06/14 11:13:06;;;;;;;;;;;;;;;27.39;34.01;98144.63;5033490;28;19971;-90
2023/06/14 11:15:33;;;;;;;;;;;;;;;28.36;32.89;98137.88;5036042;28;20372;-89
2023/06/14 11:18:00;;;;;;;;;;;;;;;29.93;31.28;98126.13;5053441;28;20329;-91
2023/06/14 11:20:27;;;;;;;;;;;;;;;31.10;29.69;98130.69;5035608;28;20015;-88
2023/06/14 11:22:54;;;;;;;;;;;;;;;30.27;30.09;98122.91;5033598;28;19923;-93
2023/06/14 11:25:20;;;;;;;;;;;;;;;29.87;30.82;98125.19;5034595;28;19917;-91
2023/06/14 11:27:46;;;;;;;;;;;;;;;29.66;30.54;98131.75;5052951;28;19943;-92
2023/06/14 11:30:13;;;;;;;;;;;;;;;29.86;30.84;98120.78;5053449;28;20026;-90
2023/06/14 11:32:39;;;;;;;;;;;;;;;30.12;29.95;98124.06;5053127;28;20376;-91
2023/06/14 11:35:05;;;;;;;;;;;;;;;29.86;29.41;98124.41;5053173;28;19933;-92
2023/06/14 11:37:34;;;;;;;;;;;;;;;29.37;30.86;98110.34;5037175;28;20323;-89
2023/06/14 11:40:01;;;;;;;;;;;;;;;29.21;31.24;98124.78;5036946;28;19921;-90
2023/06/14 11:42:28;;;;;;;;;;;;;;;29.99;30.41;98115.75;5038742;28;19925;-90
2023/06/14 11:44:55;;;;;;;;;;;;;;;31.28;28.78;98113.56;5036843;28;19921;-90
2023/06/14 11:47:21;;;;;;;;;;;;;;;32.45;26.60;98107.38;5037080;28;19917;-89
2023/06/14 11:49:47;;;;;;;;;;;;;;;33.22;26.54;98110.72;5052889;28;19923;-90
2023/06/14 11:52:14;;;;;;;;;;;;;;;30.87;29.01;98119.28;5056917;28;20011;-92
2023/06/14 11:54:40;;;;;;;;;;;;;;;31.15;27.71;98109.41;5038075;28;19917;-91
2023/06/14 11:57:07;;;;;;;;;;;;;;;31.64;27.21;98106.88;5046107;28;19917;-92
2023/06/14 11:59:39;;;;;;;;;;;;;;;30.43;28.81;98108.44;5056605;28;20288;-89
2023/06/14 12:02:07;;;;;;;;;;;;;;;30.64;28.51;98110.22;5056464;28;20485;-92
2023/06/14 12:04:33;;;;;;;;;;;;;;;30.92;26.41;98107.31;5056754;28;19959;-90
2023/06/14 12:07:15;;;;;;;;;;;;;;;31.14;26.85;98096.47;5056024;28;19925;-91
2023/06/14 12:09:43;;;;;;;;;;;;;;;32.28;25.87;98087.19;5053345;28;19928;-91
2023/06/14 12:12:10;;;;;;;;;;;;;;;29.86;30.39;98100.97;5036557;28;19980;-93
2023/06/14 12:14:36;;;;;;;;;;;;;;;29.59;30.36;98087.59;5036473;28;19962;-91
2023/06/14 12:17:06;;;;;;;;;;;;;;;28.90;31.26;98092.16;5044051;28;20011;-92
2023/06/14 12:19:32;;;;;;;;;;;;;;;29.96;30.44;98092.00;5056574;28;19976;-91
2023/06/14 12:22:04;;;;;;;;;;;;;;;28.75;31.31;98095.56;5056690;28;19927;-91
2023/06/14 12:24:32;;;;;;;;;;;;;;;29.98;28.71;98086.63;5056676;28;20085;-92
2023/06/14 12:27:02;;;;;;;;;;;;;;;30.83;29.40;98082.59;5051355;28;19924;-89
2023/06/14 12:29:29;;;;;;;;;;;;;;;30.85;27.39;98082.13;5035878;28;19917;-91
2023/06/14 12:31:56;;;;;;;;;;;;;;;31.44;26.97;98084.00;5042424;28;19927;-92
2023/06/14 12:34:23;;;;;;;;;;;;;;;31.79;27.25;98076.44;5055301;28;20023;-89
2023/06/14 12:36:53;;;;;;;;;;;;;;;30.86;27.55;98084.47;5051252;28;20296;-89
2023/06/14 12:39:19;;;;;;;;;;;;;;;29.47;29.70;98090.56;5055218;28;20264;-88
2023/06/14 12:41:45;;;;;;;;;;;;;;;29.90;28.64;98085.38;5052792;28;19917;-91
2023/06/14 12:44:12;;;;;;;;;;;;;;;29.74;29.34;98082.06;5049982;28;19917;-94
2023/06/14 12:46:39;;;;;;;;;;;;;;;28.96;30.87;98070.50;5046751;28;19923;-90
2023/06/14 12:49:07;;;;;;;;;;;;;;;29.82;29.80;98074.88;5054558;28;19983;-90